Latest Weather Observations for Jacup

IDW60801

Issued at 1:03 pm WST Sunday 25 September 2016 (issued every 30 minutes, with the page automatically refreshed every 10 minutes)

About weather observations | Map of weather stations | Latest weather observations for WA | Other Formats
Station Details ID: 010905 Name: JACUP Lat: -33.89 Lon: 119.11 Height: 305.0 m
Data from the previous 72 hours. | See also: Recent months at Jacup
Date/Time
WST
Temp
°C
App
Temp
°C
Dew
Point
°C
Rel
Hum
%
Delta-T
°C
Wind Press
QNH
hPa
Press
MSL
hPa
Rain since
9am
mm
Dir  Spd
km/h
Gust
km/h
Spd
kts
Gust
kts
25/01:00pm 14.1 8.6 1.7 43 5.5 SSW 20 32 11 17 1016.4 1016.3 0.0
25/12:30pm 13.9 8.5 1.5 43 5.4 SSW 19 28 10 15 1016.3 1016.2 0.0
25/12:00pm 14.9 9.4 1.8 41 5.8 SSW 20 32 11 17 1016.4 1016.3 0.0
25/11:30am 12.9 7.0 1.6 46 4.9 SSW 22 39 12 21 1016.3 1016.2 0.0
25/11:00am 13.1 6.7 0.8 43 5.3 SSW 24 37 13 20 1016.3 1016.2 0.0
25/10:30am 12.8 6.2 1.8 47 4.8 SSW 26 35 14 19 1016.1 1016.0 0.0
25/10:00am 12.4 6.3 2.8 52 4.3 SSW 24 37 13 20 1016.2 1016.1 0.0
25/09:30am 11.3 5.2 2.9 56 3.7 SW 24 37 13 20 1015.9 1015.8 0.0
25/09:00am 10.5 4.6 4.0 64 2.9 SSW 24 35 13 19 1015.9 1015.8 0.2
25/08:30am 9.0 4.1 5.2 77 1.7 SSW 20 33 11 18 1015.7 1015.6 0.2
25/08:00am 7.8 2.7 5.8 87 0.9 SSW 22 35 12 19 1015.4 1015.3 0.2
25/07:30am 7.9 3.9 6.7 92 0.6 SSW 17 28 9 15 1015.0 1014.9 0.2
25/07:00am 7.8 3.8 6.6 92 0.6 SW 17 28 9 15 1014.8 1014.7 0.2
25/06:30am 7.4 4.1 6.3 93 0.5 WSW 13 20 7 11 1014.2 1014.0 0.2
25/06:00am 6.9 3.5 5.8 93 0.5 W 13 19 7 10 1013.6 1013.5 0.0
25/05:30am 6.7 3.2 5.5 92 0.5 WNW 13 20 7 11 1013.3 1013.2 0.0
25/05:00am 6.6 3.0 5.1 90 0.7 W 13 19 7 10 1012.9 1012.8 0.0
25/04:30am 6.6 2.6 5.1 90 0.7 WNW 15 20 8 11 1012.5 1012.4 0.0
25/04:00am 6.6 2.6 5.1 90 0.7 WNW 15 20 8 11 1012.3 1012.2 0.0
25/03:30am 5.7 2.3 4.2 90 0.7 WNW 11 15 6 8 1012.1 1012.0 0.0
25/03:00am 5.9 1.8 4.1 88 0.8 WNW 15 20 8 11 1012.0 1011.9 0.0
25/02:30am 6.2 2.9 4.4 88 0.8 WNW 11 20 6 11 1011.9 1011.8 0.0
25/02:00am 6.5 2.8 4.7 88 0.8 NW 13 20 7 11 1011.9 1011.8 0.0
25/01:30am 6.2 2.8 4.2 87 0.9 NW 11 15 6 8 1012.2 1012.1 0.0
25/01:00am 6.8 3.1 4.6 86 1.0 NW 13 19 7 10 1012.3 1012.2 0.0
25/12:30am 7.2 3.5 4.7 84 1.1 NW 13 20 7 11 1012.4 1012.3 0.0
25/12:00am 7.1 3.4 4.6 84 1.1 NW 13 20 7 11 1012.6 1012.5 0.0
 
Date/Time
WST
Temp
°C
App
Temp
°C
Dew
Point
°C
Rel
Hum
%
Delta-T
°C
Wind Press
QNH
hPa
Press
MSL
hPa
Rain since
9am
mm
Dir  Spd
km/h
Gust
km/h
Spd
kts
Gust
kts
24/11:30pm 7.4 4.1 4.5 82 1.3 NW 11 17 6 9 1012.7 1012.6 0.0
24/11:00pm 8.0 4.7 4.6 79 1.5 NW 11 15 6 8 1013.1 1013.0 0.0
24/10:30pm 8.5 5.7 5.1 79 1.5 NW 9 13 5 7 1013.3 1013.2 0.0
24/10:00pm 8.7 5.5 5.1 78 1.6 NNW 11 15 6 8 1013.5 1013.4 0.0
24/09:30pm 8.2 5.3 4.6 78 1.6 NW 9 13 5 7 1013.5 1013.4 0.0
24/09:00pm 8.8 5.1 4.4 74 2.0 NW 13 19 7 10 1013.6 1013.5 0.0
24/08:30pm 7.7 3.9 3.7 76 1.7 NW 13 17 7 9 1013.6 1013.5 0.0
24/08:00pm 7.7 4.2 3.6 75 1.8 NNW 11 15 6 8 1013.6 1013.5 0.0
24/07:30pm 7.5 3.6 3.4 75 1.8 NNW 13 15 7 8 1013.6 1013.5 0.0
24/07:00pm 7.7 4.1 3.0 72 2.0 NNW 11 13 6 7 1013.2 1013.1 0.0
24/06:30pm 8.3 5.5 3.0 69 2.3 NW 7 9 4 5 1013.2 1013.1 0.0
24/06:00pm 9.9 7.1 3.0 62 3.0 NW 7 11 4 6 1013.2 1013.1 0.0
24/05:30pm 11.5 8.5 2.3 53 4.0 WNW 7 13 4 7 1013.0 1012.9 0.0
24/05:00pm 11.9 8.2 2.6 53 4.1 W 11 19 6 10 1013.0 1012.9 0.0
24/04:30pm 12.0 7.2 2.5 52 4.2 W 17 24 9 13 1012.9 1012.8 0.0
24/04:00pm 12.7 7.3 2.6 50 4.5 W 20 32 11 17 1012.9 1012.8 0.0
24/03:30pm 13.4 8.1 1.7 45 5.1 WNW 19 32 10 17 1012.7 1012.6 0.0
24/03:00pm 13.4 8.2 2.6 48 4.8 WNW 19 28 10 15 1012.9 1012.8 0.0
24/02:30pm 13.6 8.2 2.2 46 5.1 W 20 32 11 17 1012.9 1012.8 0.0
24/02:00pm 13.4 8.5 2.3 47 4.9 WNW 17 30 9 16 1013.1 1013.0 0.0
24/01:30pm 13.9 8.4 1.9 44 5.3 WNW 20 32 11 17 1013.5 1013.4 0.0
24/01:00pm 14.6 9.8 2.5 44 5.5 WNW 17 28 9 15 1013.6 1013.5 0.0
24/12:30pm 14.1 10.2 3.3 48 4.9 W 13 22 7 12 1014.2 1014.0 0.0
24/12:00pm 12.6 7.7 2.2 49 4.6 W 17 28 9 15 1014.7 1014.6 0.0
24/11:30am 12.9 7.8 3.0 51 4.5 WNW 19 26 10 14 1015.1 1015.0 0.0
24/11:00am 13.4 8.8 3.8 52 4.4 WNW 17 24 9 13 1015.4 1015.3 0.0
24/10:30am 12.6 7.5 3.0 52 4.3 WNW 19 28 10 15 1015.6 1015.5 0.0
24/10:00am 11.6 6.6 3.6 58 3.6 W 19 26 10 14 1015.8 1015.7 0.0
24/09:30am 11.0 5.8 3.8 61 3.2 W 20 30 11 16 1016.2 1016.1 0.0
24/09:00am 9.7 4.1 3.4 65 2.8 WNW 22 30 12 16 1016.4 1016.3 1.2
24/08:30am 8.5 3.3 3.6 71 2.2 WNW 20 30 11 16 1016.4 1016.3 1.2
24/08:00am 7.1 2.5 3.9 80 1.4 WNW 17 28 9 15 1016.3 1016.2 1.2
24/07:30am 5.6 1.4 3.6 87 0.9 WNW 15 20 8 11 1016.2 1016.1 1.2
24/07:00am 3.8 -0.6 2.6 92 0.5 NW 15 22 8 12 1015.9 1015.8 1.2
24/06:30am 2.6 -1.6 1.7 94 0.4 WNW 13 19 7 10 1015.6 1015.5 1.2
24/06:00am 1.4 -3.0 0.5 94 0.3 WNW 13 19 7 10 1015.5 1015.4 1.2
24/05:30am 1.4 -2.6 0.5 94 0.3 WNW 11 17 6 9 1015.2 1015.1 1.2
24/05:00am 1.5 -2.1 0.6 94 0.3 WNW 9 13 5 7 1015.0 1014.9 1.2
24/04:30am 2.0 -1.9 1.1 94 0.3 WNW 11 17 6 9 1014.9 1014.8 1.2
24/04:00am 1.6 -2.4 0.7 94 0.3 NW 11 17 6 9 1014.8 1014.7 1.2
24/03:30am 1.3 -2.3 0.4 94 0.3 NW 9 15 5 8 1014.7 1014.6 1.2
24/03:00am 1.5 -2.5 0.6 94 0.3 WNW 11 15 6 8 1014.7 1014.6 1.2
24/02:30am 1.5 -2.1 0.6 94 0.3 NW 9 13 5 7 1014.6 1014.4 1.2
24/02:00am 1.3 -2.3 0.3 93 0.4 WNW 9 15 5 8 1014.8 1014.7 1.2
24/01:30am 1.5 -2.1 0.5 93 0.4 WNW 9 13 5 7 1014.8 1014.7 1.2
24/01:00am 1.7 -1.9 0.7 93 0.4 WNW 9 13 5 7 1015.0 1014.9 1.2
24/12:30am 2.0 -1.9 1.0 93 0.4 WNW 11 15 6 8 1015.1 1015.0 1.2
24/12:00am 2.3 -1.2 1.3 93 0.4 WNW 9 13 5 7 1015.2 1015.1 1.2
 
Date/Time
WST
Temp
°C
App
Temp
°C
Dew
Point
°C
Rel
Hum
%
Delta-T
°C
Wind Press
QNH
hPa
Press
MSL
hPa
Rain since
9am
mm
Dir  Spd
km/h
Gust
km/h
Spd
kts
Gust
kts
23/11:30pm 2.5 -1.4 1.3 92 0.5 WNW 11 13 6 7 1015.4 1015.3 1.2
23/11:00pm 2.9 -0.5 1.7 92 0.5 WNW 9 11 5 6 1015.6 1015.5 1.2
23/10:30pm 2.9 -0.2 1.6 91 0.5 WNW 7 9 4 5 1015.7 1015.6 1.2
23/10:00pm 3.5 0.2 2.2 91 0.5 WNW 9 11 5 6 1015.8 1015.7 1.2
23/09:30pm 4.2 0.9 2.7 90 0.6 W 9 11 5 6 1015.8 1015.7 1.2
23/09:00pm 5.3 2.2 3.8 90 0.6 W 9 13 5 7 1015.7 1015.6 1.0
23/08:30pm 4.9 1.4 3.4 90 0.6 WSW 11 15 6 8 1015.8 1015.7 1.0
23/08:00pm 4.7 1.5 3.2 90 0.6 WSW 9 13 5 7 1015.7 1015.6 1.0
23/07:30pm 4.0 0.7 2.4 89 0.7 WSW 9 11 5 6 1015.4 1015.3 1.0
23/07:00pm 4.0 0.6 2.0 87 0.8 WSW 9 11 5 6 1015.0 1014.9 1.0
23/06:30pm 5.1 1.9 3.0 86 0.9 WSW 9 11 5 6 1014.5 1014.3 1.0
23/06:00pm 6.2 3.7 3.5 83 1.2 S 6 9 3 5 1014.3 1014.1 1.0
23/05:30pm 6.9 2.3 3.5 79 1.5 SSW 17 30 9 16 1014.3 1014.1 1.0
23/05:00pm 8.5 3.9 3.6 71 2.2 SW 17 24 9 13 1013.6 1013.5 1.0
23/04:30pm 8.6 3.6 3.4 70 2.3 SSW 19 26 10 14 1013.2 1013.1 1.0
23/04:00pm 9.0 3.0 3.2 67 2.5 SW 24 35 13 19 1012.8 1012.7 1.0
23/03:30pm 9.6 4.6 4.4 70 2.3 SSW 20 35 11 19 1012.4 1012.3 1.0
23/03:00pm 9.4 4.1 5.0 74 2.0 SW 22 32 12 17 1012.4 1012.3 1.0
23/02:30pm 8.4 3.2 5.3 81 1.4 SSW 22 35 12 19 1012.2 1012.1 1.0
23/02:00pm 11.9 6.3 3.2 55 3.9 SW 22 37 12 20 1011.4 1011.2 1.0
23/01:30pm 11.5 6.2 4.9 64 3.1 SW 22 32 12 17 1011.4 1011.2 1.0
23/01:00pm 9.8 6.3 7.4 85 1.2 SW 15 22 8 12 1011.6 1011.4 1.0
23/12:30pm 7.3 1.3 5.3 87 0.9 SW 26 41 14 22 1012.1 1012.0 0.8
23/12:10pm 7.0 0.5 4.5 84 1.1 SW 28 46 15 25 1012.0 1011.9 0.4
23/12:00pm 8.6 3.3 5.0 78 1.6 SW 22 48 12 26 1011.5 1011.3 0.4
23/11:55am 8.8 2.4 3.4 69 2.4 WSW 26 48 14 26 1011.6 1011.4 0.4
23/11:30am 11.6 5.6 3.6 58 3.6 SW 24 35 13 19 1011.2 1011.0 0.0
23/11:00am 12.0 6.1 4.0 58 3.7 WSW 24 35 13 19 1011.2 1011.0 0.0
23/10:30am 11.5 5.9 5.4 66 2.9 WSW 24 35 13 19 1011.4 1011.2 0.0
23/10:00am 9.9 4.2 5.1 72 2.2 WSW 24 39 13 21 1011.4 1011.2 0.0
23/09:30am 10.2 4.5 4.8 69 2.5 WSW 24 44 13 24 1011.3 1011.1 0.0
23/09:00am 9.4 4.5 5.2 75 1.9 WSW 20 32 11 17 1011.1 1010.9 5.0
23/08:30am 8.5 3.7 5.6 82 1.3 WSW 20 32 11 17 1010.9 1010.7 5.0
23/08:00am 7.9 3.3 5.5 85 1.1 W 19 30 10 16 1010.6 1010.4 5.0
23/07:30am 6.9 2.1 5.4 90 0.7 W 20 30 11 16 1010.4 1010.3 5.0
23/07:00am 6.0 1.3 5.0 93 0.4 W 19 28 10 15 1010.2 1010.1 5.0
23/06:30am 4.9 0.7 4.0 94 0.4 W 15 20 8 11 1009.9 1009.8 5.0
23/06:00am 4.4 0.1 3.5 94 0.4 WNW 15 22 8 12 1009.5 1009.4 5.0
23/05:30am 4.4 0.2 3.7 95 0.3 WNW 15 20 8 11 1009.3 1009.2 5.0
23/05:00am 4.6 0.8 3.9 95 0.3 W 13 19 7 10 1009.1 1009.0 5.0
23/04:30am 4.9 1.2 4.2 95 0.3 W 13 19 7 10 1008.9 1008.7 5.0
23/04:00am 5.3 1.2 4.6 95 0.3 WNW 15 20 8 11 1008.8 1008.6 4.8
23/03:30am 5.6 1.6 4.7 94 0.4 WNW 15 22 8 12 1008.6 1008.4 4.8
23/03:00am 5.8 2.2 4.9 94 0.4 WNW 13 20 7 11 1008.6 1008.4 4.8
23/02:30am 6.1 2.2 5.2 94 0.4 WNW 15 22 8 12 1008.5 1008.3 4.8
23/02:00am 6.2 1.9 5.3 94 0.4 W 17 20 9 11 1008.5 1008.3 4.8
23/01:30am 6.2 2.3 5.3 94 0.4 WNW 15 20 8 11 1008.7 1008.5 4.8
23/01:00am 6.6 2.8 5.6 93 0.5 WNW 15 20 8 11 1008.7 1008.5 4.8
23/12:30am 7.1 2.6 6.0 93 0.5 W 19 26 10 14 1008.8 1008.6 4.8
23/12:00am 7.6 3.6 6.5 93 0.5 W 17 28 9 15 1008.8 1008.6 4.8
 
Date/Time
WST
Temp
°C
App
Temp
°C
Dew
Point
°C
Rel
Hum
%
Delta-T
°C
Wind Press
QNH
hPa
Press
MSL
hPa
Rain since
9am
mm
Dir  Spd
km/h
Gust
km/h
Spd
kts
Gust
kts
22/11:30pm 8.3 5.6 7.4 94 0.4 W 11 15 6 8 1008.9 1008.7 4.8
22/11:00pm 8.7 6.1 7.8 94 0.4 W 11 15 6 8 1009.2 1009.1 4.8
22/10:30pm 9.1 6.6 8.0 93 0.5 W 11 15 6 8 1009.1 1009.0 4.8
22/10:00pm 9.9 8.0 9.0 94 0.5 W 9 13 5 7 1009.3 1009.2 4.8
22/09:30pm 10.1 7.0 9.0 93 0.6 WSW 15 24 8 13 1009.3 1009.2 4.8
22/09:00pm 10.6 8.1 9.7 94 0.5 WNW 13 33 7 18 1009.0 1008.8 4.6
22/08:30pm 9.7 8.2 8.6 93 0.5 WNW 6 9 3 5 1009.0 1008.8 4.6
22/08:00pm 10.2 8.3 9.0 92 0.6 WNW 9 13 5 7 1009.0 1008.8 4.6
22/07:30pm 10.9 8.4 9.7 92 0.6 WNW 13 19 7 10 1008.9 1008.7 4.6
22/07:00pm 11.6 8.5 10.2 91 0.7 W 17 22 9 12 1008.8 1008.6 4.0
22/06:30pm 12.0 9.5 9.7 86 1.2 WNW 13 20 7 11 1008.4 1008.2 0.2
22/06:00pm 12.5 10.4 9.9 84 1.4 NW 11 17 6 9 1008.4 1008.2 0.2
22/05:30pm 12.8 9.9 9.8 82 1.6 NW 15 24 8 13 1008.4 1008.2 0.2
22/05:00pm 12.9 9.7 9.9 82 1.6 WNW 17 26 9 14 1008.1 1007.9 0.2
22/04:30pm 13.0 9.4 9.8 81 1.7 WNW 19 28 10 15 1008.1 1007.9 0.2
22/04:00pm 13.2 9.8 9.1 76 2.1 WNW 17 26 9 14 1007.8 1007.6 0.2
22/03:30pm 13.9 9.9 8.3 69 2.8 NW 19 32 10 17 1007.6 1007.4 0.2
22/03:00pm 14.5 9.7 7.3 62 3.6 NW 22 37 12 20 1007.7 1007.5 0.2
22/02:30pm 17.0 12.4 6.5 50 5.2 WNW 20 30 11 16 1007.6 1007.4 0.0
22/02:00pm 17.3 13.0 7.1 51 5.2 W 19 32 10 17 1007.8 1007.6 0.0
22/01:30pm 17.9 12.3 7.0 49 5.5 WSW 26 39 14 21 1007.8 1007.6 0.0

Other Formats:

Comma delimited format used in spreadsheet applications
http://www.bom.gov.au/fwo/IDW60801/IDW60801.95636.axf

JavaScript Object Notation format (JSON) in row-major order
http://www.bom.gov.au/fwo/IDW60801/IDW60801.95636.json